sensor_id;sensor_type;location;lat;lon;timestamp;temperature;humidity
8872;DHT22;4472;52.092;9.820;2023-10-13T00:03:07;16.70;99.90
8872;DHT22;4472;52.092;9.820;2023-10-13T00:06:00;18.00;99.90
8872;DHT22;4472;52.092;9.820;2023-10-13T00:08:49;16.90;99.90
8872;DHT22;4472;52.092;9.820;2023-10-13T00:11:41;16.60;99.90
8872;DHT22;4472;52.092;9.820;2023-10-13T00:14:30;16.70;99.90
8872;DHT22;4472;52.092;9.820;2023-10-13T00:17:19;16.70;99.90
8872;DHT22;4472;52.092;9.820;2023-10-13T00:20:11;16.70;99.90
8872;DHT22;4472;52.092;9.820;2023-10-13T00:23:19;16.70;99.90
8872;DHT22;4472;52.092;9.820;2023-10-13T00:26:07;16.70;99.90
8872;DHT22;4472;52.092;9.820;2023-10-13T00:28:57;16.70;99.90
8872;DHT22;4472;52.092;9.820;2023-10-13T00:31:56;16.70;99.90
8872;DHT22;4472;52.092;9.820;2023-10-13T00:34:43;16.70;99.90
8872;DHT22;4472;52.092;9.820;2023-10-13T00:37:30;16.90;99.90
8872;DHT22;4472;52.092;9.820;2023-10-13T00:40:27;16.80;99.90
8872;DHT22;4472;52.092;9.820;2023-10-13T00:43:30;16.70;99.90
8872;DHT22;4472;52.092;9.820;2023-10-13T00:46:22;16.70;99.90
8872;DHT22;4472;52.092;9.820;2023-10-13T00:49:19;16.80;99.90
8872;DHT22;4472;52.092;9.820;2023-10-13T00:52:07;16.80;99.90
8872;DHT22;4472;52.092;9.820;2023-10-13T00:54:56;16.80;99.90
8872;DHT22;4472;52.092;9.820;2023-10-13T00:57:45;16.80;99.90
8872;DHT22;4472;52.092;9.820;2023-10-13T01:00:33;16.80;99.90
8872;DHT22;4472;52.092;9.820;2023-10-13T01:03:34;16.80;99.90
8872;DHT22;4472;52.092;9.820;2023-10-13T01:06:22;17.10;99.90
8872;DHT22;4472;52.092;9.820;2023-10-13T01:09:13;16.80;99.90
8872;DHT22;4472;52.092;9.820;2023-10-13T01:12:02;16.80;99.90
8872;DHT22;4472;52.092;9.820;2023-10-13T01:14:49;16.80;99.90
8872;DHT22;4472;52.092;9.820;2023-10-13T01:17:36;16.80;99.90
8872;DHT22;4472;52.092;9.820;2023-10-13T01:20:24;16.80;99.90
8872;DHT22;4472;52.092;9.820;2023-10-13T01:23:13;16.80;99.90
8872;DHT22;4472;52.092;9.820;2023-10-13T01:26:04;16.80;99.90
8872;DHT22;4472;52.092;9.820;2023-10-13T01:28:56;16.70;99.90
8872;DHT22;4472;52.092;9.820;2023-10-13T01:31:44;16.70;99.90
8872;DHT22;4472;52.092;9.820;2023-10-13T01:34:34;16.70;99.90
8872;DHT22;4472;52.092;9.820;2023-10-13T01:37:21;16.50;99.90
8872;DHT22;4472;52.092;9.820;2023-10-13T01:40:11;16.80;99.90
8872;DHT22;4472;52.092;9.820;2023-10-13T01:43:04;16.70;99.90
8872;DHT22;4472;52.092;9.820;2023-10-13T01:45:56;17.20;99.90
8872;DHT22;4472;52.092;9.820;2023-10-13T01:48:43;16.70;99.90
8872;DHT22;4472;52.092;9.820;2023-10-13T01:51:32;16.70;99.90
8872;DHT22;4472;52.092;9.820;2023-10-13T01:54:19;16.70;99.90
8872;DHT22;4472;52.092;9.820;2023-10-13T01:57:08;16.90;99.90
8872;DHT22;4472;52.092;9.820;2023-10-13T01:59:59;16.70;99.90
8872;DHT22;4472;52.092;9.820;2023-10-13T02:02:55;16.70;99.90
8872;DHT22;4472;52.092;9.820;2023-10-13T02:05:47;16.70;99.90
8872;DHT22;4472;52.092;9.820;2023-10-13T02:08:34;16.70;99.90
8872;DHT22;4472;52.092;9.820;2023-10-13T02:11:25;16.80;99.90
8872;DHT22;4472;52.092;9.820;2023-10-13T02:14:14;16.80;99.90
8872;DHT22;4472;52.092;9.820;2023-10-13T02:17:04;16.80;99.90
8872;DHT22;4472;52.092;9.820;2023-10-13T02:19:58;16.80;99.90
8872;DHT22;4472;52.092;9.820;2023-10-13T02:22:53;16.80;99.90
8872;DHT22;4472;52.092;9.820;2023-10-13T02:25:40;16.80;99.90
8872;DHT22;4472;52.092;9.820;2023-10-13T02:28:32;16.80;99.90
8872;DHT22;4472;52.092;9.820;2023-10-13T02:31:22;16.80;99.90
8872;DHT22;4472;52.092;9.820;2023-10-13T02:34:11;16.80;99.90
8872;DHT22;4472;52.092;9.820;2023-10-13T02:36:58;16.80;99.90
8872;DHT22;4472;52.092;9.820;2023-10-13T02:39:48;16.80;99.90
8872;DHT22;4472;52.092;9.820;2023-10-13T02:42:34;16.80;99.90
8872;DHT22;4472;52.092;9.820;2023-10-13T02:45:22;16.80;99.90
8872;DHT22;4472;52.092;9.820;2023-10-13T02:48:13;16.80;99.90
8872;DHT22;4472;52.092;9.820;2023-10-13T02:51:03;16.80;99.90
8872;DHT22;4472;52.092;9.820;2023-10-13T02:53:52;16.80;99.90
8872;DHT22;4472;52.092;9.820;2023-10-13T02:56:40;16.70;99.90
8872;DHT22;4472;52.092;9.820;2023-10-13T02:59:34;16.80;99.90
8872;DHT22;4472;52.092;9.820;2023-10-13T03:02:25;16.80;99.90
8872;DHT22;4472;52.092;9.820;2023-10-13T03:05:15;16.80;99.90
8872;DHT22;4472;52.092;9.820;2023-10-13T03:08:04;16.80;99.90
8872;DHT22;4472;52.092;9.820;2023-10-13T03:10:51;16.80;99.90
8872;DHT22;4472;52.092;9.820;2023-10-13T03:13:40;16.80;99.90
8872;DHT22;4472;52.092;9.820;2023-10-13T03:16:30;16.80;99.90
8872;DHT22;4472;52.092;9.820;2023-10-13T03:19:17;17.00;99.90
8872;DHT22;4472;52.092;9.820;2023-10-13T03:22:10;16.80;99.90
8872;DHT22;4472;52.092;9.820;2023-10-13T03:24:57;16.80;99.90
8872;DHT22;4472;52.092;9.820;2023-10-13T03:27:51;16.80;99.90
8872;DHT22;4472;52.092;9.820;2023-10-13T03:30:50;16.80;99.90
8872;DHT22;4472;52.092;9.820;2023-10-13T03:33:38;16.70;99.90
8872;DHT22;4472;52.092;9.820;2023-10-13T03:36:30;16.30;99.90
8872;DHT22;4472;52.092;9.820;2023-10-13T03:39:36;16.60;99.90
8872;DHT22;4472;52.092;9.820;2023-10-13T03:42:23;16.70;99.90
8872;DHT22;4472;52.092;9.820;2023-10-13T03:45:11;16.60;99.90
8872;DHT22;4472;52.092;9.820;2023-10-13T03:47:58;16.70;99.90
8872;DHT22;4472;52.092;9.820;2023-10-13T03:50:45;16.60;99.90
8872;DHT22;4472;52.092;9.820;2023-10-13T03:53:34;16.70;99.90
8872;DHT22;4472;52.092;9.820;2023-10-13T03:56:24;16.60;99.90
8872;DHT22;4472;52.092;9.820;2023-10-13T03:59:24;16.60;99.90
8872;DHT22;4472;52.092;9.820;2023-10-13T04:02:21;16.70;99.90
8872;DHT22;4472;52.092;9.820;2023-10-13T04:07:49;16.70;99.90
8872;DHT22;4472;52.092;9.820;2023-10-13T04:10:52;16.70;99.90
8872;DHT22;4472;52.092;9.820;2023-10-13T04:13:58;16.80;99.90
8872;DHT22;4472;52.092;9.820;2023-10-13T04:17:05;16.80;99.90
8872;DHT22;4472;52.092;9.820;2023-10-13T04:20:00;16.80;99.90
8872;DHT22;4472;52.092;9.820;2023-10-13T04:22:59;16.80;99.90
8872;DHT22;4472;52.092;9.820;2023-10-13T04:26:05;16.80;99.90
8872;DHT22;4472;52.092;9.820;2023-10-13T04:28:55;16.80;99.90
8872;DHT22;4472;52.092;9.820;2023-10-13T04:31:44;16.80;99.90
8872;DHT22;4472;52.092;9.820;2023-10-13T04:34:42;16.80;99.90
8872;DHT22;4472;52.092;9.820;2023-10-13T04:37:31;16.80;99.90
8872;DHT22;4472;52.092;9.820;2023-10-13T04:40:33;16.80;99.90
8872;DHT22;4472;52.092;9.820;2023-10-13T04:43:21;16.80;99.90
8872;DHT22;4472;52.092;9.820;2023-10-13T04:46:19;16.80;99.90
8872;DHT22;4472;52.092;9.820;2023-10-13T04:49:22;16.80;99.90
8872;DHT22;4472;52.092;9.820;2023-10-13T04:52:21;16.80;99.90
8872;DHT22;4472;52.092;9.820;2023-10-13T04:55:33;16.90;99.90
8872;DHT22;4472;52.092;9.820;2023-10-13T04:58:45;16.90;99.90
8872;DHT22;4472;52.092;9.820;2023-10-13T05:01:49;16.90;99.90
8872;DHT22;4472;52.092;9.820;2023-10-13T05:05:05;16.90;99.90
8872;DHT22;4472;52.092;9.820;2023-10-13T05:08:07;16.90;99.90
8872;DHT22;4472;52.092;9.820;2023-10-13T05:11:12;16.90;99.90
8872;DHT22;4472;52.092;9.820;2023-10-13T05:14:17;17.00;99.90
8872;DHT22;4472;52.092;9.820;2023-10-13T05:17:22;16.90;99.90
8872;DHT22;4472;52.092;9.820;2023-10-13T05:20:27;17.00;99.90
8872;DHT22;4472;52.092;9.820;2023-10-13T05:23:32;17.00;99.90
8872;DHT22;4472;52.092;9.820;2023-10-13T05:26:36;17.00;99.90
8872;DHT22;4472;52.092;9.820;2023-10-13T05:29:47;17.00;99.90
8872;DHT22;4472;52.092;9.820;2023-10-13T05:32:52;17.00;99.90
8872;DHT22;4472;52.092;9.820;2023-10-13T05:35:58;17.10;99.90
8872;DHT22;4472;52.092;9.820;2023-10-13T05:39:03;17.00;99.90
8872;DHT22;4472;52.092;9.820;2023-10-13T05:42:22;17.00;99.90
8872;DHT22;4472;52.092;9.820;2023-10-13T05:45:27;17.00;99.90
8872;DHT22;4472;52.092;9.820;2023-10-13T05:48:43;17.00;99.90
8872;DHT22;4472;52.092;9.820;2023-10-13T05:51:56;17.10;99.90
8872;DHT22;4472;52.092;9.820;2023-10-13T05:54:54;17.10;99.90
8872;DHT22;4472;52.092;9.820;2023-10-13T05:57:58;17.10;99.90
8872;DHT22;4472;52.092;9.820;2023-10-13T06:01:03;17.10;99.90
8872;DHT22;4472;52.092;9.820;2023-10-13T06:04:07;17.10;99.90
8872;DHT22;4472;52.092;9.820;2023-10-13T06:07:13;17.10;99.90
8872;DHT22;4472;52.092;9.820;2023-10-13T06:10:17;17.20;99.90
8872;DHT22;4472;52.092;9.820;2023-10-13T06:13:22;17.20;99.90
8872;DHT22;4472;52.092;9.820;2023-10-13T06:16:26;17.20;99.90
8872;DHT22;4472;52.092;9.820;2023-10-13T06:19:31;17.20;99.90
8872;DHT22;4472;52.092;9.820;2023-10-13T06:22:37;17.20;99.90
8872;DHT22;4472;52.092;9.820;2023-10-13T06:25:41;17.20;99.90
8872;DHT22;4472;52.092;9.820;2023-10-13T06:28:57;17.20;99.90
8872;DHT22;4472;52.092;9.820;2023-10-13T06:31:45;17.20;99.90
8872;DHT22;4472;52.092;9.820;2023-10-13T06:34:32;17.30;99.90
8872;DHT22;4472;52.092;9.820;2023-10-13T06:37:31;17.30;99.90
8872;DHT22;4472;52.092;9.820;2023-10-13T06:40:20;17.20;99.90
8872;DHT22;4472;52.092;9.820;2023-10-13T06:43:19;17.20;99.90
8872;DHT22;4472;52.092;9.820;2023-10-13T06:46:07;17.20;99.90
8872;DHT22;4472;52.092;9.820;2023-10-13T06:49:00;17.30;99.90
8872;DHT22;4472;52.092;9.820;2023-10-13T06:51:48;17.20;99.90
8872;DHT22;4472;52.092;9.820;2023-10-13T06:54:35;17.20;99.90
8872;DHT22;4472;52.092;9.820;2023-10-13T06:57:26;17.30;99.90
8872;DHT22;4472;52.092;9.820;2023-10-13T07:00:19;17.30;99.90
8872;DHT22;4472;52.092;9.820;2023-10-13T07:03:14;17.40;99.90
8872;DHT22;4472;52.092;9.820;2023-10-13T07:06:05;17.50;99.90
8872;DHT22;4472;52.092;9.820;2023-10-13T07:08:57;17.50;99.90
8872;DHT22;4472;52.092;9.820;2023-10-13T07:11:44;17.50;99.90
8872;DHT22;4472;52.092;9.820;2023-10-13T07:14:32;17.50;99.90
8872;DHT22;4472;52.092;9.820;2023-10-13T07:17:20;17.60;99.90
8872;DHT22;4472;52.092;9.820;2023-10-13T07:20:22;17.60;99.90
8872;DHT22;4472;52.092;9.820;2023-10-13T07:23:19;17.60;99.90
8872;DHT22;4472;52.092;9.820;2023-10-13T07:26:07;17.60;99.90
8872;DHT22;4472;52.092;9.820;2023-10-13T07:28:55;17.60;99.90
8872;DHT22;4472;52.092;9.820;2023-10-13T07:31:43;17.70;99.90
8872;DHT22;4472;52.092;9.820;2023-10-13T07:34:31;17.70;99.90
8872;DHT22;4472;52.092;9.820;2023-10-13T07:37:18;17.70;99.90
8872;DHT22;4472;52.092;9.820;2023-10-13T07:40:09;17.70;99.90
8872;DHT22;4472;52.092;9.820;2023-10-13T07:43:17;17.80;99.90
8872;DHT22;4472;52.092;9.820;2023-10-13T07:46:07;17.80;99.90
8872;DHT22;4472;52.092;9.820;2023-10-13T07:48:56;17.70;99.90
8872;DHT22;4472;52.092;9.820;2023-10-13T07:51:55;17.80;99.90
8872;DHT22;4472;52.092;9.820;2023-10-13T07:54:44;17.80;99.90
8872;DHT22;4472;52.092;9.820;2023-10-13T07:57:33;17.80;99.90
8872;DHT22;4472;52.092;9.820;2023-10-13T08:00:21;17.80;99.90
8872;DHT22;4472;52.092;9.820;2023-10-13T08:03:32;17.80;99.90
8872;DHT22;4472;52.092;9.820;2023-10-13T08:06:31;17.90;99.90
8872;DHT22;4472;52.092;9.820;2023-10-13T08:09:20;17.90;99.90
8872;DHT22;4472;52.092;9.820;2023-10-13T08:12:18;17.90;99.90
8872;DHT22;4472;52.092;9.820;2023-10-13T08:15:19;17.90;99.90
8872;DHT22;4472;52.092;9.820;2023-10-13T08:18:18;18.00;99.90
8872;DHT22;4472;52.092;9.820;2023-10-13T08:21:16;18.10;99.90
8872;DHT22;4472;52.092;9.820;2023-10-13T08:24:10;18.10;99.90
8872;DHT22;4472;52.092;9.820;2023-10-13T08:27:01;18.20;99.90
8872;DHT22;4472;52.092;9.820;2023-10-13T08:30:17;18.20;99.90
8872;DHT22;4472;52.092;9.820;2023-10-13T08:33:15;18.30;99.90
8872;DHT22;4472;52.092;9.820;2023-10-13T08:36:10;18.30;99.90
8872;DHT22;4472;52.092;9.820;2023-10-13T08:39:16;18.30;99.90
8872;DHT22;4472;52.092;9.820;2023-10-13T08:42:30;18.30;99.90
8872;DHT22;4472;52.092;9.820;2023-10-13T08:45:39;18.40;99.90
8872;DHT22;4472;52.092;9.820;2023-10-13T08:48:48;18.50;99.90
8872;DHT22;4472;52.092;9.820;2023-10-13T08:51:36;18.60;99.90
8872;DHT22;4472;52.092;9.820;2023-10-13T08:54:33;18.70;99.90
8872;DHT22;4472;52.092;9.820;2023-10-13T08:57:25;18.80;99.90
8872;DHT22;4472;52.092;9.820;2023-10-13T09:00:20;19.00;99.90
8872;DHT22;4472;52.092;9.820;2023-10-13T09:03:14;19.10;99.90
8872;DHT22;4472;52.092;9.820;2023-10-13T09:10:02;19.40;99.90
8872;DHT22;4472;52.092;9.820;2023-10-13T09:12:58;19.50;99.90
8872;DHT22;4472;52.092;9.820;2023-10-13T09:15:48;19.60;99.90
8872;DHT22;4472;52.092;9.820;2023-10-13T09:18:46;19.70;99.90
8872;DHT22;4472;52.092;9.820;2023-10-13T09:21:37;19.80;99.90
8872;DHT22;4472;52.092;9.820;2023-10-13T09:24:36;19.90;99.90
8872;DHT22;4472;52.092;9.820;2023-10-13T09:27:25;19.90;99.90
8872;DHT22;4472;52.092;9.820;2023-10-13T09:30:13;19.90;99.90
8872;DHT22;4472;52.092;9.820;2023-10-13T09:33:04;20.00;99.90
8872;DHT22;4472;52.092;9.820;2023-10-13T09:35:54;20.00;99.90
8872;DHT22;4472;52.092;9.820;2023-10-13T09:38:46;20.10;99.90
8872;DHT22;4472;52.092;9.820;2023-10-13T09:41:54;20.20;99.90
8872;DHT22;4472;52.092;9.820;2023-10-13T09:44:49;20.30;99.90
8872;DHT22;4472;52.092;9.820;2023-10-13T09:47:38;20.30;99.90
8872;DHT22;4472;52.092;9.820;2023-10-13T09:50:28;20.40;99.90
8872;DHT22;4472;52.092;9.820;2023-10-13T09:53:19;20.50;99.90
8872;DHT22;4472;52.092;9.820;2023-10-13T09:56:12;20.50;99.90
8872;DHT22;4472;52.092;9.820;2023-10-13T09:59:02;20.60;99.90
8872;DHT22;4472;52.092;9.820;2023-10-13T10:02:01;20.50;99.90
8872;DHT22;4472;52.092;9.820;2023-10-13T10:04:55;20.50;99.90
8872;DHT22;4472;52.092;9.820;2023-10-13T10:10:40;20.40;99.90
8872;DHT22;4472;52.092;9.820;2023-10-13T10:13:38;20.30;99.90
8872;DHT22;4472;52.092;9.820;2023-10-13T10:16:37;20.30;99.90
8872;DHT22;4472;52.092;9.820;2023-10-13T10:19:29;20.30;99.90
8872;DHT22;4472;52.092;9.820;2023-10-13T10:22:26;20.40;99.90
8872;DHT22;4472;52.092;9.820;2023-10-13T10:25:16;20.50;99.90
8872;DHT22;4472;52.092;9.820;2023-10-13T10:28:11;20.70;99.90
8872;DHT22;4472;52.092;9.820;2023-10-13T10:31:04;20.90;99.90
8872;DHT22;4472;52.092;9.820;2023-10-13T10:33:55;21.00;99.90
8872;DHT22;4472;52.092;9.820;2023-10-13T10:36:46;21.10;99.90
8872;DHT22;4472;52.092;9.820;2023-10-13T10:39:34;21.20;99.90
8872;DHT22;4472;52.092;9.820;2023-10-13T10:42:31;21.10;99.90
8872;DHT22;4472;52.092;9.820;2023-10-13T10:45:18;21.00;99.90
8872;DHT22;4472;52.092;9.820;2023-10-13T10:48:11;21.00;99.90
8872;DHT22;4472;52.092;9.820;2023-10-13T10:51:03;20.90;99.90
8872;DHT22;4472;52.092;9.820;2023-10-13T10:54:03;21.00;99.90
8872;DHT22;4472;52.092;9.820;2023-10-13T10:56:58;21.10;99.90
8872;DHT22;4472;52.092;9.820;2023-10-13T10:59:56;21.10;99.90
8872;DHT22;4472;52.092;9.820;2023-10-13T11:02:57;21.10;99.90
8872;DHT22;4472;52.092;9.820;2023-10-13T11:05:45;21.20;99.90
8872;DHT22;4472;52.092;9.820;2023-10-13T11:08:32;21.40;99.90
8872;DHT22;4472;52.092;9.820;2023-10-13T11:11:30;21.40;99.90
8872;DHT22;4472;52.092;9.820;2023-10-13T11:14:22;21.40;99.90
8872;DHT22;4472;52.092;9.820;2023-10-13T11:17:10;21.40;99.90
8872;DHT22;4472;52.092;9.820;2023-10-13T11:20:08;21.30;99.90
8872;DHT22;4472;52.092;9.820;2023-10-13T11:23:10;21.30;99.90
8872;DHT22;4472;52.092;9.820;2023-10-13T11:25:59;21.40;99.90
8872;DHT22;4472;52.092;9.820;2023-10-13T11:28:51;21.60;99.90
8872;DHT22;4472;52.092;9.820;2023-10-13T11:31:41;21.70;99.90
8872;DHT22;4472;52.092;9.820;2023-10-13T11:34:28;21.80;99.90
8872;DHT22;4472;52.092;9.820;2023-10-13T11:37:25;21.80;99.90
8872;DHT22;4472;52.092;9.820;2023-10-13T11:40:23;21.90;99.90
8872;DHT22;4472;52.092;9.820;2023-10-13T11:43:25;22.00;99.90
8872;DHT22;4472;52.092;9.820;2023-10-13T11:46:14;22.10;99.90
8872;DHT22;4472;52.092;9.820;2023-10-13T11:49:02;22.20;99.90
8872;DHT22;4472;52.092;9.820;2023-10-13T11:52:00;22.40;99.90
8872;DHT22;4472;52.092;9.820;2023-10-13T11:55:01;22.40;99.90
8872;DHT22;4472;52.092;9.820;2023-10-13T11:57:50;22.40;99.90
8872;DHT22;4472;52.092;9.820;2023-10-13T12:00:37;22.50;99.90
8872;DHT22;4472;52.092;9.820;2023-10-13T12:03:55;22.50;99.90
8872;DHT22;4472;52.092;9.820;2023-10-13T12:07:00;22.60;99.90
8872;DHT22;4472;52.092;9.820;2023-10-13T12:10:00;22.60;99.90
8872;DHT22;4472;52.092;9.820;2023-10-13T12:12:52;22.50;99.90
8872;DHT22;4472;52.092;9.820;2023-10-13T12:15:40;22.40;99.90
8872;DHT22;4472;52.092;9.820;2023-10-13T12:18:38;22.40;99.90
8872;DHT22;4472;52.092;9.820;2023-10-13T12:21:27;22.50;99.90
8872;DHT22;4472;52.092;9.820;2023-10-13T12:24:15;22.60;99.90
8872;DHT22;4472;52.092;9.820;2023-10-13T12:27:17;22.70;99.90
8872;DHT22;4472;52.092;9.820;2023-10-13T12:30:10;22.70;99.90
8872;DHT22;4472;52.092;9.820;2023-10-13T12:32:59;22.70;99.90
8872;DHT22;4472;52.092;9.820;2023-10-13T12:35:57;22.70;99.90
8872;DHT22;4472;52.092;9.820;2023-10-13T12:38:56;22.60;99.90
8872;DHT22;4472;52.092;9.820;2023-10-13T12:42:01;22.60;99.90
8872;DHT22;4472;52.092;9.820;2023-10-13T12:45:06;22.70;99.90
8872;DHT22;4472;52.092;9.820;2023-10-13T12:48:11;22.80;99.90
8872;DHT22;4472;52.092;9.820;2023-10-13T12:51:16;22.80;99.90
8872;DHT22;4472;52.092;9.820;2023-10-13T12:54:27;22.80;99.90
8872;DHT22;4472;52.092;9.820;2023-10-13T12:57:21;22.70;99.90
8872;DHT22;4472;52.092;9.820;2023-10-13T13:00:13;22.80;99.90
8872;DHT22;4472;52.092;9.820;2023-10-13T13:03:06;22.90;99.90
8872;DHT22;4472;52.092;9.820;2023-10-13T13:05:57;23.00;99.90
8872;DHT22;4472;52.092;9.820;2023-10-13T13:08:44;23.10;99.90
8872;DHT22;4472;52.092;9.820;2023-10-13T13:11:33;23.10;99.90
8872;DHT22;4472;52.092;9.820;2023-10-13T13:14:25;23.20;99.90
8872;DHT22;4472;52.092;9.820;2023-10-13T13:17:15;23.10;99.90
8872;DHT22;4472;52.092;9.820;2023-10-13T13:20:02;23.10;99.90
8872;DHT22;4472;52.092;9.820;2023-10-13T13:22:56;23.00;99.90
8872;DHT22;4472;52.092;9.820;2023-10-13T13:25:48;23.00;99.90
8872;DHT22;4472;52.092;9.820;2023-10-13T13:28:37;23.10;99.90
8872;DHT22;4472;52.092;9.820;2023-10-13T13:31:24;23.10;99.90
8872;DHT22;4472;52.092;9.820;2023-10-13T13:34:15;23.10;99.90
8872;DHT22;4472;52.092;9.820;2023-10-13T13:37:02;23.10;99.90
8872;DHT22;4472;52.092;9.820;2023-10-13T13:39:51;23.00;99.90
8872;DHT22;4472;52.092;9.820;2023-10-13T13:42:39;23.00;99.90
8872;DHT22;4472;52.092;9.820;2023-10-13T13:45:28;23.00;99.90
8872;DHT22;4472;52.092;9.820;2023-10-13T13:48:24;22.90;99.90
8872;DHT22;4472;52.092;9.820;2023-10-13T13:51:13;22.90;99.90
8872;DHT22;4472;52.092;9.820;2023-10-13T13:54:01;22.90;99.90
8872;DHT22;4472;52.092;9.820;2023-10-13T13:56:52;22.80;99.90
8872;DHT22;4472;52.092;9.820;2023-10-13T13:59:39;22.70;99.90
8872;DHT22;4472;52.092;9.820;2023-10-13T14:02:32;22.70;99.90
8872;DHT22;4472;52.092;9.820;2023-10-13T14:05:21;22.60;99.90
8872;DHT22;4472;52.092;9.820;2023-10-13T14:08:09;22.60;99.90
8872;DHT22;4472;52.092;9.820;2023-10-13T14:11:00;22.50;99.90
8872;DHT22;4472;52.092;9.820;2023-10-13T14:14:08;22.40;99.90
8872;DHT22;4472;52.092;9.820;2023-10-13T14:16:57;22.30;99.90
8872;DHT22;4472;52.092;9.820;2023-10-13T14:19:53;22.20;99.90
8872;DHT22;4472;52.092;9.820;2023-10-13T14:22:41;22.20;99.90
8872;DHT22;4472;52.092;9.820;2023-10-13T14:25:28;22.20;99.90
8872;DHT22;4472;52.092;9.820;2023-10-13T14:28:23;22.20;99.90
8872;DHT22;4472;52.092;9.820;2023-10-13T14:31:18;22.10;99.90
8872;DHT22;4472;52.092;9.820;2023-10-13T14:34:06;22.10;99.90
8872;DHT22;4472;52.092;9.820;2023-10-13T14:36:55;22.00;99.90
8872;DHT22;4472;52.092;9.820;2023-10-13T14:39:42;21.90;99.90
8872;DHT22;4472;52.092;9.820;2023-10-13T14:42:29;21.80;99.90
8872;DHT22;4472;52.092;9.820;2023-10-13T14:45:21;21.80;99.90
8872;DHT22;4472;52.092;9.820;2023-10-13T14:48:08;21.80;99.90
8872;DHT22;4472;52.092;9.820;2023-10-13T14:50:58;21.70;99.90
8872;DHT22;4472;52.092;9.820;2023-10-13T14:53:55;21.60;99.90
8872;DHT22;4472;52.092;9.820;2023-10-13T14:56:45;21.50;99.90
8872;DHT22;4472;52.092;9.820;2023-10-13T14:59:32;21.50;99.90
8872;DHT22;4472;52.092;9.820;2023-10-13T15:02:24;21.40;99.90
8872;DHT22;4472;52.092;9.820;2023-10-13T15:05:11;21.40;99.90
8872;DHT22;4472;52.092;9.820;2023-10-13T15:08:03;21.40;99.90
8872;DHT22;4472;52.092;9.820;2023-10-13T15:10:53;21.30;99.90
8872;DHT22;4472;52.092;9.820;2023-10-13T15:13:41;21.40;99.90
8872;DHT22;4472;52.092;9.820;2023-10-13T15:16:28;21.40;99.90
8872;DHT22;4472;52.092;9.820;2023-10-13T15:19:15;21.40;99.90
8872;DHT22;4472;52.092;9.820;2023-10-13T15:22:03;21.40;99.90
8872;DHT22;4472;52.092;9.820;2023-10-13T15:24:52;21.40;99.90
8872;DHT22;4472;52.092;9.820;2023-10-13T15:27:58;21.40;99.90
8872;DHT22;4472;52.092;9.820;2023-10-13T15:30:48;21.30;99.90
8872;DHT22;4472;52.092;9.820;2023-10-13T15:33:42;21.30;99.90
8872;DHT22;4472;52.092;9.820;2023-10-13T15:36:38;21.30;99.90
8872;DHT22;4472;52.092;9.820;2023-10-13T15:39:26;21.40;99.90
8872;DHT22;4472;52.092;9.820;2023-10-13T15:42:17;21.40;99.90
8872;DHT22;4472;52.092;9.820;2023-10-13T15:45:09;21.40;99.90
8872;DHT22;4472;52.092;9.820;2023-10-13T15:48:04;21.40;99.90
8872;DHT22;4472;52.092;9.820;2023-10-13T15:50:51;21.40;99.90
8872;DHT22;4472;52.092;9.820;2023-10-13T15:53:38;21.40;99.90
8872;DHT22;4472;52.092;9.820;2023-10-13T15:56:26;21.40;99.90
8872;DHT22;4472;52.092;9.820;2023-10-13T15:59:13;21.40;99.90
8872;DHT22;4472;52.092;9.820;2023-10-13T16:02:02;21.30;99.90
8872;DHT22;4472;52.092;9.820;2023-10-13T16:04:53;21.20;99.90
8872;DHT22;4472;52.092;9.820;2023-10-13T16:07:45;21.10;99.90
8872;DHT22;4472;52.092;9.820;2023-10-13T16:10:32;21.10;99.90
8872;DHT22;4472;52.092;9.820;2023-10-13T16:13:20;21.00;99.90
8872;DHT22;4472;52.092;9.820;2023-10-13T16:16:14;21.00;99.90
8872;DHT22;4472;52.092;9.820;2023-10-13T16:19:03;20.90;99.90
8872;DHT22;4472;52.092;9.820;2023-10-13T16:21:52;20.90;99.90
8872;DHT22;4472;52.092;9.820;2023-10-13T16:24:39;20.90;99.90
8872;DHT22;4472;52.092;9.820;2023-10-13T16:27:27;20.90;99.90
8872;DHT22;4472;52.092;9.820;2023-10-13T16:30:16;20.90;99.90
8872;DHT22;4472;52.092;9.820;2023-10-13T16:33:05;20.90;99.90
8872;DHT22;4472;52.092;9.820;2023-10-13T16:35:53;20.80;99.90
8872;DHT22;4472;52.092;9.820;2023-10-13T16:38:42;20.80;99.90
8872;DHT22;4472;52.092;9.820;2023-10-13T16:41:31;20.70;99.90
8872;DHT22;4472;52.092;9.820;2023-10-13T16:44:21;20.70;99.90
8872;DHT22;4472;52.092;9.820;2023-10-13T16:47:11;20.70;99.90
8872;DHT22;4472;52.092;9.820;2023-10-13T16:49:59;20.60;99.90
8872;DHT22;4472;52.092;9.820;2023-10-13T16:52:49;20.60;99.90
8872;DHT22;4472;52.092;9.820;2023-10-13T16:55:36;20.60;99.90
8872;DHT22;4472;52.092;9.820;2023-10-13T16:58:27;20.60;99.90
8872;DHT22;4472;52.092;9.820;2023-10-13T17:01:16;20.60;99.90
8872;DHT22;4472;52.092;9.820;2023-10-13T17:04:04;20.60;99.90
8872;DHT22;4472;52.092;9.820;2023-10-13T17:06:51;20.60;99.90
8872;DHT22;4472;52.092;9.820;2023-10-13T17:09:39;20.50;99.90
8872;DHT22;4472;52.092;9.820;2023-10-13T17:12:26;20.50;99.90
8872;DHT22;4472;52.092;9.820;2023-10-13T17:15:15;20.50;99.90
8872;DHT22;4472;52.092;9.820;2023-10-13T17:18:07;20.50;99.90
8872;DHT22;4472;52.092;9.820;2023-10-13T17:20:54;20.50;99.90
8872;DHT22;4472;52.092;9.820;2023-10-13T17:23:42;20.60;99.90
8872;DHT22;4472;52.092;9.820;2023-10-13T17:26:31;20.60;99.90
8872;DHT22;4472;52.092;9.820;2023-10-13T17:29:18;20.60;99.90
8872;DHT22;4472;52.092;9.820;2023-10-13T17:32:08;20.60;99.90
8872;DHT22;4472;52.092;9.820;2023-10-13T17:34:56;20.60;99.90
8872;DHT22;4472;52.092;9.820;2023-10-13T17:37:44;20.60;99.90
8872;DHT22;4472;52.092;9.820;2023-10-13T17:40:33;20.50;99.90
8872;DHT22;4472;52.092;9.820;2023-10-13T17:43:21;20.50;99.90
8872;DHT22;4472;52.092;9.820;2023-10-13T17:46:13;20.50;99.90
8872;DHT22;4472;52.092;9.820;2023-10-13T17:49:01;20.50;99.90
8872;DHT22;4472;52.092;9.820;2023-10-13T17:51:49;20.50;99.90
8872;DHT22;4472;52.092;9.820;2023-10-13T17:54:36;20.50;99.90
8872;DHT22;4472;52.092;9.820;2023-10-13T17:57:24;20.40;99.90
8872;DHT22;4472;52.092;9.820;2023-10-13T18:00:15;20.50;99.90
8872;DHT22;4472;52.092;9.820;2023-10-13T18:03:08;20.50;99.90
8872;DHT22;4472;52.092;9.820;2023-10-13T18:05:59;20.60;99.90
8872;DHT22;4472;52.092;9.820;2023-10-13T18:08:47;20.60;99.90
8872;DHT22;4472;52.092;9.820;2023-10-13T18:11:35;20.70;99.90
8872;DHT22;4472;52.092;9.820;2023-10-13T18:14:28;20.70;99.90
8872;DHT22;4472;52.092;9.820;2023-10-13T18:17:17;20.70;99.90
8872;DHT22;4472;52.092;9.820;2023-10-13T18:20:05;20.70;99.90
8872;DHT22;4472;52.092;9.820;2023-10-13T18:22:56;20.80;99.90
8872;DHT22;4472;52.092;9.820;2023-10-13T18:25:45;20.80;99.90
8872;DHT22;4472;52.092;9.820;2023-10-13T18:28:34;20.70;99.90
8872;DHT22;4472;52.092;9.820;2023-10-13T18:31:22;20.70;99.90
8872;DHT22;4472;52.092;9.820;2023-10-13T18:34:11;20.70;99.90
8872;DHT22;4472;52.092;9.820;2023-10-13T18:37:00;20.60;99.90
8872;DHT22;4472;52.092;9.820;2023-10-13T18:39:48;20.60;99.90
8872;DHT22;4472;52.092;9.820;2023-10-13T18:42:41;20.60;99.90
8872;DHT22;4472;52.092;9.820;2023-10-13T18:45:33;20.60;99.90
8872;DHT22;4472;52.092;9.820;2023-10-13T18:48:22;20.50;99.90
8872;DHT22;4472;52.092;9.820;2023-10-13T18:51:12;20.60;99.90
8872;DHT22;4472;52.092;9.820;2023-10-13T18:54:00;20.50;99.90
8872;DHT22;4472;52.092;9.820;2023-10-13T18:56:47;20.50;99.90
8872;DHT22;4472;52.092;9.820;2023-10-13T18:59:36;20.50;99.90
8872;DHT22;4472;52.092;9.820;2023-10-13T19:02:24;20.50;99.90